Science Garden, Philippines

5:40 PM PHT on August 27, 2014 (GMT +0800)
Loyola Heights | Change Station
CLOSE
Current Station
Personal Weather Station
Location: Quezon City, NCR
Elevation: 187 ft
Nearby Weather Stations

Elev 187 ft 14.64 °N, 121.08 °E | Updated 10 minutes ago

Mostly Cloudy
Mostly Cloudy
87.4 °F
Feels Like 101 °F
N
0.0
Wind Variable Wind from NW

Today
High -- | Low -- °F
--% Chance of Precip.
Yesterday
High -- | Low -- °F
Precip. -- in
5:43 AM 6:11 PM
Waxing Crescent, 3% visible
Pressure 29.80 in
Visibility 6.2 miles
Clouds Few 2300 ft
Mostly Cloudy 10000 ft
Heat Index 101 °F
Dew Point 79 °F
Humidity 75%
Rainfall 0.00 in
Snow Depth Not available.
UV 0.0 out of 12
Pollen Not available.
Air Quality Not available.
Flu Activity Not available.
METAR RPLL 270900Z 16004KT 090V240 9999 FEW023CB BKN100 32/24 Q1009 NOSIG RMK A2980

More Conditions Fewer Conditions

Pressure 29.80 in
Visibility 6.2 miles
Clouds Few 2300 ft
Mostly Cloudy 10000 ft
Heat Index 101 °F
Dew Point 79 °F
Humidity 75%
Rainfall 0.00 in
Snow Depth Not available.
UV 0.0 out of 12
Pollen Not available.
Air Quality Not available.
Flu Activity Not available.
METAR RPLL 270900Z 16004KT 090V240 9999 FEW023CB BKN100 32/24 Q1009 NOSIG RMK A2980

More Conditions Fewer Conditions

10-Day Weather Forecast

Almanac

Astronomy

Aug. 27, 2014 Rise Set
Actual Time 5:43 AM PHT 6:11 PM PHT
Civil Twilight 5:21 AM PHT 6:33 PM PHT
Nautical Twilight 4:56 AM PHT 6:58 PM PHT
Astronomical Twilight 4:30 AM PHT 7:24 PM PHT
Moon 6:46 AM PHT 7:09 PM PHT
Length of Visible Light 13h 11m
Length of Day
12h 28m
Tomorrow will be 0m 45s shorter.
Waxing Crescent, 3% of the Moon is Illuminated
Today
Waxing Crescent
Sep 2
First Quarter
Sep 8
Full
Sep 15
Last Quarter
Sep 24
New

Yesterday's Extremes

Country Highs Country Lows

Community

WunderPhotos

Upload Photos

1,747,661 photos uploaded!

Nearby

Snow Depth

Not available.

Earthquake Activity

City Distance Mag. Time & Date
No recent earthquake activity has been reported nearby.
Minimum magnitude displayed is 2.5.

Coastal Water Temperatures

Place Temperature
No Stations Reporting

Nearby Weather Stations